sensor_id;sensor_type;location;lat;lon;timestamp;temperature;humidity
53286;DHT22;39171;45.550;12.074;2022-12-07T00:02:17;16.10;66.50
53286;DHT22;39171;45.550;12.074;2022-12-07T00:08:18;16.00;67.00
53286;DHT22;39171;45.550;12.074;2022-12-07T00:14:20;16.00;67.00
53286;DHT22;39171;45.550;12.074;2022-12-07T00:20:22;15.90;67.30
53286;DHT22;39171;45.550;12.074;2022-12-07T00:26:35;15.90;66.80
53286;DHT22;39171;45.550;12.074;2022-12-07T00:32:43;15.80;66.80
53286;DHT22;39171;45.550;12.074;2022-12-07T00:38:44;15.80;66.80
53286;DHT22;39171;45.550;12.074;2022-12-07T00:44:46;15.80;67.50
53286;DHT22;39171;45.550;12.074;2022-12-07T00:50:48;15.70;66.90
53286;DHT22;39171;45.550;12.074;2022-12-07T00:56:49;15.70;67.30
53286;DHT22;39171;45.550;12.074;2022-12-07T01:02:51;15.70;67.20
53286;DHT22;39171;45.550;12.074;2022-12-07T01:08:54;15.70;66.90
53286;DHT22;39171;45.550;12.074;2022-12-07T01:14:55;15.60;66.90
53286;DHT22;39171;45.550;12.074;2022-12-07T01:27:02;15.50;66.80
53286;DHT22;39171;45.550;12.074;2022-12-07T01:33:03;15.50;67.10
53286;DHT22;39171;45.550;12.074;2022-12-07T01:39:06;15.50;67.50
53286;DHT22;39171;45.550;12.074;2022-12-07T01:51:18;15.40;67.80
53286;DHT22;39171;45.550;12.074;2022-12-07T01:57:20;15.40;67.70
53286;DHT22;39171;45.550;12.074;2022-12-07T02:03:36;15.30;67.50
53286;DHT22;39171;45.550;12.074;2022-12-07T02:09:39;15.30;67.90
53286;DHT22;39171;45.550;12.074;2022-12-07T02:41:52;15.20;68.30
53286;DHT22;39171;45.550;12.074;2022-12-07T02:47:58;15.20;68.00
53286;DHT22;39171;45.550;12.074;2022-12-07T02:54:00;15.20;68.40
53286;DHT22;39171;45.550;12.074;2022-12-07T03:00:09;15.20;68.20
53286;DHT22;39171;45.550;12.074;2022-12-07T03:06:24;15.10;68.20
53286;DHT22;39171;45.550;12.074;2022-12-07T03:12:43;15.00;69.00
53286;DHT22;39171;45.550;12.074;2022-12-07T03:19:15;15.00;69.10
53286;DHT22;39171;45.550;12.074;2022-12-07T03:25:18;15.00;69.60
53286;DHT22;39171;45.550;12.074;2022-12-07T03:31:26;15.00;69.60
53286;DHT22;39171;45.550;12.074;2022-12-07T03:37:36;15.00;69.20
53286;DHT22;39171;45.550;12.074;2022-12-07T03:43:40;14.90;69.50
53286;DHT22;39171;45.550;12.074;2022-12-07T03:49:50;14.80;69.10
53286;DHT22;39171;45.550;12.074;2022-12-07T03:55:53;14.80;69.30
53286;DHT22;39171;45.550;12.074;2022-12-07T04:01:59;14.80;69.40
53286;DHT22;39171;45.550;12.074;2022-12-07T04:08:02;14.80;69.40
53286;DHT22;39171;45.550;12.074;2022-12-07T04:14:04;14.70;69.20
53286;DHT22;39171;45.550;12.074;2022-12-07T04:20:21;14.70;69.30
53286;DHT22;39171;45.550;12.074;2022-12-07T04:26:22;14.70;69.50
53286;DHT22;39171;45.550;12.074;2022-12-07T04:32:24;14.70;69.30
53286;DHT22;39171;45.550;12.074;2022-12-07T04:38:26;14.60;69.70
53286;DHT22;39171;45.550;12.074;2022-12-07T04:44:28;14.60;69.40
53286;DHT22;39171;45.550;12.074;2022-12-07T04:50:30;14.60;69.30
53286;DHT22;39171;45.550;12.074;2022-12-07T04:56:31;14.50;69.50
53286;DHT22;39171;45.550;12.074;2022-12-07T05:02:33;14.50;70.10
53286;DHT22;39171;45.550;12.074;2022-12-07T05:08:35;14.50;69.70
53286;DHT22;39171;45.550;12.074;2022-12-07T05:14:37;14.50;69.50
53286;DHT22;39171;45.550;12.074;2022-12-07T05:20:39;14.40;70.10
53286;DHT22;39171;45.550;12.074;2022-12-07T05:26:41;14.50;70.30
53286;DHT22;39171;45.550;12.074;2022-12-07T05:32:43;14.60;70.20
53286;DHT22;39171;45.550;12.074;2022-12-07T05:38:44;14.80;70.00
53286;DHT22;39171;45.550;12.074;2022-12-07T05:44:46;15.00;69.60
53286;DHT22;39171;45.550;12.074;2022-12-07T05:50:49;15.30;69.20
53286;DHT22;39171;45.550;12.074;2022-12-07T05:56:51;15.50;68.10
53286;DHT22;39171;45.550;12.074;2022-12-07T06:02:52;15.70;67.30
53286;DHT22;39171;45.550;12.074;2022-12-07T06:08:55;15.80;66.80
53286;DHT22;39171;45.550;12.074;2022-12-07T06:14:57;15.90;66.40
53286;DHT22;39171;45.550;12.074;2022-12-07T06:20:58;16.00;65.90
53286;DHT22;39171;45.550;12.074;2022-12-07T06:27:00;16.10;65.40
53286;DHT22;39171;45.550;12.074;2022-12-07T06:33:03;16.20;64.70
53286;DHT22;39171;45.550;12.074;2022-12-07T06:39:05;16.20;64.30
53286;DHT22;39171;45.550;12.074;2022-12-07T06:45:07;16.20;63.90
53286;DHT22;39171;45.550;12.074;2022-12-07T06:51:09;16.30;63.50
53286;DHT22;39171;45.550;12.074;2022-12-07T06:57:11;16.30;63.40
53286;DHT22;39171;45.550;12.074;2022-12-07T07:03:12;16.30;63.10
53286;DHT22;39171;45.550;12.074;2022-12-07T07:09:14;16.40;63.00
53286;DHT22;39171;45.550;12.074;2022-12-07T07:15:15;16.40;62.80
53286;DHT22;39171;45.550;12.074;2022-12-07T07:21:17;16.50;62.60
53286;DHT22;39171;45.550;12.074;2022-12-07T07:27:18;16.50;62.50
53286;DHT22;39171;45.550;12.074;2022-12-07T07:33:21;16.50;62.40
53286;DHT22;39171;45.550;12.074;2022-12-07T07:39:26;16.60;62.30
53286;DHT22;39171;45.550;12.074;2022-12-07T07:45:28;16.60;62.10
53286;DHT22;39171;45.550;12.074;2022-12-07T07:51:31;16.70;61.90
53286;DHT22;39171;45.550;12.074;2022-12-07T07:57:32;16.70;61.80
53286;DHT22;39171;45.550;12.074;2022-12-07T08:03:34;16.70;61.70
53286;DHT22;39171;45.550;12.074;2022-12-07T08:09:37;16.80;61.60
53286;DHT22;39171;45.550;12.074;2022-12-07T08:15:40;16.80;61.80
53286;DHT22;39171;45.550;12.074;2022-12-07T08:21:42;16.90;62.20
53286;DHT22;39171;45.550;12.074;2022-12-07T08:27:44;17.00;62.10
53286;DHT22;39171;45.550;12.074;2022-12-07T08:33:51;17.00;61.80
53286;DHT22;39171;45.550;12.074;2022-12-07T08:40:04;17.00;61.60
53286;DHT22;39171;45.550;12.074;2022-12-07T08:46:39;17.10;61.50
53286;DHT22;39171;45.550;12.074;2022-12-07T08:52:44;17.20;61.50
53286;DHT22;39171;45.550;12.074;2022-12-07T08:59:13;17.20;61.30
53286;DHT22;39171;45.550;12.074;2022-12-07T09:05:24;17.20;61.00
53286;DHT22;39171;45.550;12.074;2022-12-07T09:11:30;17.30;61.00
53286;DHT22;39171;45.550;12.074;2022-12-07T09:17:33;17.20;61.00
53286;DHT22;39171;45.550;12.074;2022-12-07T09:23:42;17.20;61.40
53286;DHT22;39171;45.550;12.074;2022-12-07T09:29:49;17.20;61.50
53286;DHT22;39171;45.550;12.074;2022-12-07T09:35:54;17.20;61.30
53286;DHT22;39171;45.550;12.074;2022-12-07T09:42:08;17.20;61.40
53286;DHT22;39171;45.550;12.074;2022-12-07T09:48:18;17.10;61.50
53286;DHT22;39171;45.550;12.074;2022-12-07T09:54:21;17.10;61.60
53286;DHT22;39171;45.550;12.074;2022-12-07T10:00:23;17.10;61.70
53286;DHT22;39171;45.550;12.074;2022-12-07T10:06:29;17.00;61.90
53286;DHT22;39171;45.550;12.074;2022-12-07T10:13:11;17.00;62.20
53286;DHT22;39171;45.550;12.074;2022-12-07T10:19:27;17.00;62.10
53286;DHT22;39171;45.550;12.074;2022-12-07T10:25:36;17.20;62.00
53286;DHT22;39171;45.550;12.074;2022-12-07T10:31:41;17.30;62.00
53286;DHT22;39171;45.550;12.074;2022-12-07T10:37:43;17.30;61.90
53286;DHT22;39171;45.550;12.074;2022-12-07T10:43:54;17.30;61.70
53286;DHT22;39171;45.550;12.074;2022-12-07T11:42:09;17.50;60.00
53286;DHT22;39171;45.550;12.074;2022-12-07T11:48:40;17.50;60.10
53286;DHT22;39171;45.550;12.074;2022-12-07T11:54:45;17.40;60.00
53286;DHT22;39171;45.550;12.074;2022-12-07T12:07:23;17.40;60.00
53286;DHT22;39171;45.550;12.074;2022-12-07T12:26:24;17.30;60.30
53286;DHT22;39171;45.550;12.074;2022-12-07T12:32:44;17.30;60.50
53286;DHT22;39171;45.550;12.074;2022-12-07T12:39:12;17.30;60.30
53286;DHT22;39171;45.550;12.074;2022-12-07T12:51:39;17.20;60.10
53286;DHT22;39171;45.550;12.074;2022-12-07T12:57:41;17.30;60.10
53286;DHT22;39171;45.550;12.074;2022-12-07T13:03:52;17.30;60.20
53286;DHT22;39171;45.550;12.074;2022-12-07T13:09:54;17.40;59.80
53286;DHT22;39171;45.550;12.074;2022-12-07T13:28:36;17.70;59.10
53286;DHT22;39171;45.550;12.074;2022-12-07T13:34:44;17.70;59.70
53286;DHT22;39171;45.550;12.074;2022-12-07T13:41:00;17.80;59.80
53286;DHT22;39171;45.550;12.074;2022-12-07T13:47:05;17.90;59.40
53286;DHT22;39171;45.550;12.074;2022-12-07T13:53:12;18.00;59.20
53286;DHT22;39171;45.550;12.074;2022-12-07T13:59:23;18.20;59.20
53286;DHT22;39171;45.550;12.074;2022-12-07T14:05:42;18.30;58.90
53286;DHT22;39171;45.550;12.074;2022-12-07T14:11:46;18.40;59.00
53286;DHT22;39171;45.550;12.074;2022-12-07T14:17:54;18.50;58.80
53286;DHT22;39171;45.550;12.074;2022-12-07T14:24:21;18.50;58.20
53286;DHT22;39171;45.550;12.074;2022-12-07T14:30:31;18.50;57.70
53286;DHT22;39171;45.550;12.074;2022-12-07T14:36:33;18.50;57.90
53286;DHT22;39171;45.550;12.074;2022-12-07T14:42:35;18.40;57.70
53286;DHT22;39171;45.550;12.074;2022-12-07T14:48:36;18.40;57.80
53286;DHT22;39171;45.550;12.074;2022-12-07T14:54:38;18.30;57.80
53286;DHT22;39171;45.550;12.074;2022-12-07T15:08:40;18.20;57.80
53286;DHT22;39171;45.550;12.074;2022-12-07T15:14:42;18.20;57.90
53286;DHT22;39171;45.550;12.074;2022-12-07T15:20:44;18.10;58.20
53286;DHT22;39171;45.550;12.074;2022-12-07T15:26:48;18.00;58.20
53286;DHT22;39171;45.550;12.074;2022-12-07T15:32:51;18.00;58.40
53286;DHT22;39171;45.550;12.074;2022-12-07T15:38:54;17.90;58.50
53286;DHT22;39171;45.550;12.074;2022-12-07T15:44:55;17.80;58.50
53286;DHT22;39171;45.550;12.074;2022-12-07T15:51:07;17.80;58.60
53286;DHT22;39171;45.550;12.074;2022-12-07T15:57:09;17.70;58.70
53286;DHT22;39171;45.550;12.074;2022-12-07T16:03:11;17.70;58.90
53286;DHT22;39171;45.550;12.074;2022-12-07T16:09:16;17.70;59.00
53286;DHT22;39171;45.550;12.074;2022-12-07T16:15:50;17.60;59.20
53286;DHT22;39171;45.550;12.074;2022-12-07T16:21:52;17.50;59.30
53286;DHT22;39171;45.550;12.074;2022-12-07T16:27:53;17.40;59.50
53286;DHT22;39171;45.550;12.074;2022-12-07T16:33:57;17.30;59.70
53286;DHT22;39171;45.550;12.074;2022-12-07T16:39:58;17.40;59.50
53286;DHT22;39171;45.550;12.074;2022-12-07T16:46:00;17.50;59.60
53286;DHT22;39171;45.550;12.074;2022-12-07T16:52:02;17.50;59.70
53286;DHT22;39171;45.550;12.074;2022-12-07T16:58:03;17.60;59.70
53286;DHT22;39171;45.550;12.074;2022-12-07T17:04:06;17.70;59.50
53286;DHT22;39171;45.550;12.074;2022-12-07T17:10:09;17.80;59.40
53286;DHT22;39171;45.550;12.074;2022-12-07T17:16:10;17.90;59.10
53286;DHT22;39171;45.550;12.074;2022-12-07T17:22:14;18.10;58.90
53286;DHT22;39171;45.550;12.074;2022-12-07T17:28:16;18.20;58.70
53286;DHT22;39171;45.550;12.074;2022-12-07T17:34:18;18.30;58.40
53286;DHT22;39171;45.550;12.074;2022-12-07T17:40:19;18.30;58.40
53286;DHT22;39171;45.550;12.074;2022-12-07T17:46:21;18.30;58.40
53286;DHT22;39171;45.550;12.074;2022-12-07T17:52:22;18.30;58.50
53286;DHT22;39171;45.550;12.074;2022-12-07T17:58:42;18.30;58.30
53286;DHT22;39171;45.550;12.074;2022-12-07T18:04:44;18.30;58.40
53286;DHT22;39171;45.550;12.074;2022-12-07T18:10:47;18.30;58.20
53286;DHT22;39171;45.550;12.074;2022-12-07T18:16:49;18.20;58.20
53286;DHT22;39171;45.550;12.074;2022-12-07T18:22:52;18.20;58.10
53286;DHT22;39171;45.550;12.074;2022-12-07T18:28:53;18.10;58.20
53286;DHT22;39171;45.550;12.074;2022-12-07T18:34:55;18.10;58.20
53286;DHT22;39171;45.550;12.074;2022-12-07T18:40:56;18.00;58.20
53286;DHT22;39171;45.550;12.074;2022-12-07T18:46:58;18.00;58.20
53286;DHT22;39171;45.550;12.074;2022-12-07T18:53:00;17.90;58.40
53286;DHT22;39171;45.550;12.074;2022-12-07T18:59:03;17.90;58.50
53286;DHT22;39171;45.550;12.074;2022-12-07T19:13:21;17.80;58.40
53286;DHT22;39171;45.550;12.074;2022-12-07T19:19:34;17.70;58.80
53286;DHT22;39171;45.550;12.074;2022-12-07T19:25:39;17.70;59.00
53286;DHT22;39171;45.550;12.074;2022-12-07T19:31:40;17.70;59.00
53286;DHT22;39171;45.550;12.074;2022-12-07T19:37:42;17.60;59.10
53286;DHT22;39171;45.550;12.074;2022-12-07T19:43:43;17.60;59.00
53286;DHT22;39171;45.550;12.074;2022-12-07T19:49:45;17.50;59.00
53286;DHT22;39171;45.550;12.074;2022-12-07T19:55:50;17.40;59.00
53286;DHT22;39171;45.550;12.074;2022-12-07T20:01:52;17.40;59.10
53286;DHT22;39171;45.550;12.074;2022-12-07T20:07:53;17.30;59.10
53286;DHT22;39171;45.550;12.074;2022-12-07T20:13:55;17.30;59.20
53286;DHT22;39171;45.550;12.074;2022-12-07T20:19:56;17.30;59.20
53286;DHT22;39171;45.550;12.074;2022-12-07T20:26:02;17.20;59.40
53286;DHT22;39171;45.550;12.074;2022-12-07T20:32:04;17.20;59.50
53286;DHT22;39171;45.550;12.074;2022-12-07T20:38:14;17.10;59.50
53286;DHT22;39171;45.550;12.074;2022-12-07T20:44:16;17.00;59.60
53286;DHT22;39171;45.550;12.074;2022-12-07T20:50:19;17.00;59.60
53286;DHT22;39171;45.550;12.074;2022-12-07T20:56:26;16.90;59.70
53286;DHT22;39171;45.550;12.074;2022-12-07T21:02:28;16.80;59.70
53286;DHT22;39171;45.550;12.074;2022-12-07T21:08:30;16.80;59.90
53286;DHT22;39171;45.550;12.074;2022-12-07T21:14:31;16.70;59.90
53286;DHT22;39171;45.550;12.074;2022-12-07T21:20:33;16.70;60.00
53286;DHT22;39171;45.550;12.074;2022-12-07T21:26:35;16.70;60.10
53286;DHT22;39171;45.550;12.074;2022-12-07T21:32:36;16.60;60.30
53286;DHT22;39171;45.550;12.074;2022-12-07T21:38:38;16.60;60.30
53286;DHT22;39171;45.550;12.074;2022-12-07T21:44:40;16.60;60.60
53286;DHT22;39171;45.550;12.074;2022-12-07T21:50:46;16.50;60.60
53286;DHT22;39171;45.550;12.074;2022-12-07T21:56:48;16.40;60.60
53286;DHT22;39171;45.550;12.074;2022-12-07T22:02:50;16.40;60.70
53286;DHT22;39171;45.550;12.074;2022-12-07T22:08:52;16.30;60.60
53286;DHT22;39171;45.550;12.074;2022-12-07T22:14:54;16.30;61.00
53286;DHT22;39171;45.550;12.074;2022-12-07T22:21:10;16.30;61.00
53286;DHT22;39171;45.550;12.074;2022-12-07T22:27:11;16.20;61.00
53286;DHT22;39171;45.550;12.074;2022-12-07T22:33:13;16.20;61.10
53286;DHT22;39171;45.550;12.074;2022-12-07T22:39:14;16.20;61.10
53286;DHT22;39171;45.550;12.074;2022-12-07T22:45:16;16.10;61.20
53286;DHT22;39171;45.550;12.074;2022-12-07T22:51:29;16.10;61.30
53286;DHT22;39171;45.550;12.074;2022-12-07T22:57:31;16.10;61.50
53286;DHT22;39171;45.550;12.074;2022-12-07T23:03:33;16.00;61.40
53286;DHT22;39171;45.550;12.074;2022-12-07T23:09:34;16.00;61.50
53286;DHT22;39171;45.550;12.074;2022-12-07T23:15:39;16.00;61.60
53286;DHT22;39171;45.550;12.074;2022-12-07T23:21:46;15.90;61.70
53286;DHT22;39171;45.550;12.074;2022-12-07T23:27:48;15.80;61.80
53286;DHT22;39171;45.550;12.074;2022-12-07T23:33:49;15.80;61.80
53286;DHT22;39171;45.550;12.074;2022-12-07T23:39:51;15.80;62.20
53286;DHT22;39171;45.550;12.074;2022-12-07T23:45:52;15.80;62.30
53286;DHT22;39171;45.550;12.074;2022-12-07T23:51:53;15.70;62.60
53286;DHT22;39171;45.550;12.074;2022-12-07T23:57:55;15.70;62.80
